Little Current, Canada
Current Conditions -  °F | °C
As of 7:00 PM on Friday 28 Nov 2014 (Local Time) from CYZE Reporting Station
Light Snow Light Snow  
Wind Chill:   Ceiling: 9500
Heat Index: 19°   Visibility: 9mi
Dew Point: 16°   Wind: 9mph
Humidity: 86%   Direction: 130°SE
Pressure: 30.11"   Gusts: NA
Location:  45.97°N, 81.93°W
Report Text: CYZE 290000Z AUTO 13008KT 9SM -SN SCT032 OVC095 M07/M09 A3011 RMK ICG SLP211
Loading
Personal Weather Stations






























Interactive Weather Map New forecast layout! Learn more

10-Day Weather Forecast

Advertisements
Track Severe Weather on mobile